createdAt,value
2023-01-31T00:01:36.374Z,101358.56
2023-01-31T00:04:06.241Z,101359.41
2023-01-31T00:06:37.397Z,101361.97
2023-01-31T00:09:07.189Z,101366.28
2023-01-31T00:11:36.201Z,101362.84
2023-01-31T00:14:05.423Z,101372.28
2023-01-31T00:16:33.580Z,101366.28
2023-01-31T00:19:01.626Z,101366.28
2023-01-31T00:21:34.897Z,101364.53
2023-01-31T00:24:09.868Z,101368.84
2023-01-31T00:26:42.091Z,101362.84
2023-01-31T00:29:14.424Z,101359.41
2023-01-31T00:31:48.699Z,101366.28
2023-01-31T00:34:22.213Z,101361.13
2023-01-31T00:36:53.844Z,101360.28
2023-01-31T00:39:28.105Z,101358.56
2023-01-31T00:41:58.435Z,101355.97
2023-01-31T00:44:29.839Z,101349.97
2023-01-31T00:46:59.287Z,101359.41
2023-01-31T00:49:27.453Z,101358.53
2023-01-31T00:51:57.537Z,101367.09
2023-01-31T00:54:27.263Z,101365.38
2023-01-31T00:56:56.387Z,101361.91
2023-01-31T00:59:24.055Z,101359.34
2023-01-31T01:01:51.771Z,101366.19
2023-01-31T01:04:19.492Z,101361.00
2023-01-31T01:06:47.780Z,101365.25
2023-01-31T01:09:15.476Z,101357.53
2023-01-31T01:11:44.672Z,101365.19
2023-01-31T01:14:12.429Z,101364.31
2023-01-31T01:16:42.119Z,101372.94
2023-01-31T01:19:14.043Z,101367.69
2023-01-31T01:21:41.712Z,101365.09
2023-01-31T01:24:14.469Z,101373.63
2023-01-31T01:26:44.759Z,101374.47
2023-01-31T01:29:12.993Z,101392.41
2023-01-31T01:31:41.178Z,101378.72
2023-01-31T01:34:14.213Z,101377.88
2023-01-31T01:36:42.467Z,101391.53
2023-01-31T01:39:12.597Z,101390.63
2023-01-31T01:41:44.796Z,101392.28
2023-01-31T01:44:44.924Z,101396.59
2023-01-31T01:47:19.798Z,101394.81
2023-01-31T01:49:50.932Z,101395.63
2023-01-31T01:52:20.020Z,101399.00
2023-01-31T01:54:53.300Z,101398.03
2023-01-31T01:57:26.959Z,101395.41
2023-01-31T01:59:58.987Z,101401.34
2023-01-31T02:02:27.308Z,101409.84
2023-01-31T02:04:55.335Z,101409.06
2023-01-31T02:07:23.180Z,101408.25
2023-01-31T02:09:58.300Z,101405.59
2023-01-31T02:12:27.555Z,101404.66
2023-01-31T02:14:56.853Z,101400.44
2023-01-31T02:17:26.724Z,101405.56
2023-01-31T02:20:08.427Z,101400.38
2023-01-31T02:22:43.984Z,101405.47
2023-01-31T02:25:42.906Z,101401.25
2023-01-31T02:28:40.099Z,101406.31
2023-01-31T02:31:47.140Z,101403.78
2023-01-31T02:34:23.756Z,101408.88
2023-01-31T02:37:02.876Z,101405.47
2023-01-31T02:39:40.110Z,101407.09
2023-01-31T02:42:16.864Z,101401.06
2023-01-31T02:45:00.228Z,101403.66
2023-01-31T02:47:42.399Z,101397.66
2023-01-31T02:50:20.681Z,101390.75
2023-01-31T02:52:53.820Z,101395.84
2023-01-31T02:55:44.706Z,101395.78
2023-01-31T02:58:16.035Z,101396.47
2023-01-31T03:00:46.961Z,101397.34
2023-01-31T03:03:20.584Z,101393.91
2023-01-31T03:06:12.887Z,101397.28
2023-01-31T03:08:43.809Z,101401.50
2023-01-31T03:11:13.002Z,101406.63
2023-01-31T03:13:50.525Z,101413.56
2023-01-31T03:16:44.391Z,101416.06
2023-01-31T03:19:18.514Z,101416.84
2023-01-31T03:21:54.034Z,101421.97
2023-01-31T03:24:26.171Z,101419.41
2023-01-31T03:26:56.664Z,101418.56
2023-01-31T03:29:26.892Z,101421.09
2023-01-31T03:31:58.652Z,101421.91
2023-01-31T03:34:27.850Z,101420.97
2023-01-31T03:37:04.281Z,101431.19
2023-01-31T03:39:46.475Z,101434.59
2023-01-31T03:42:22.378Z,101436.25
2023-01-31T03:44:59.134Z,101446.47
2023-01-31T03:47:30.582Z,101441.31
2023-01-31T03:50:03.128Z,101446.47
2023-01-31T03:52:36.713Z,101446.59
2023-01-31T03:55:09.306Z,101455.22
2023-01-31T03:57:42.423Z,101461.19
2023-01-31T04:00:16.533Z,101463.75
2023-01-31T04:02:55.170Z,101453.50
2023-01-31T04:05:30.515Z,101450.97
2023-01-31T04:08:00.534Z,101450.03
2023-01-31T04:10:31.153Z,101452.41
2023-01-31T04:12:58.781Z,101454.19
2023-01-31T04:15:26.757Z,101452.59
2023-01-31T04:17:54.524Z,101455.97
2023-01-31T04:20:22.558Z,101455.94
2023-01-31T04:22:50.527Z,101457.63
2023-01-31T04:25:20.233Z,101451.66
2023-01-31T04:27:48.297Z,101459.25
2023-01-31T04:30:16.148Z,101457.50
2023-01-31T04:32:43.866Z,101453.22
2023-01-31T04:35:11.586Z,101453.22
2023-01-31T04:37:39.311Z,101448.94
2023-01-31T04:40:08.767Z,101444.78
2023-01-31T04:42:37.829Z,101443.06
2023-01-31T04:45:06.647Z,101429.38
2023-01-31T04:47:34.306Z,101424.31
2023-01-31T04:50:02.768Z,101420.00
2023-01-31T04:52:30.946Z,101431.00
2023-01-31T04:54:58.614Z,101430.25
2023-01-31T04:57:26.686Z,101431.88
2023-01-31T04:59:55.907Z,101431.78
2023-01-31T05:02:24.040Z,101432.56
2023-01-31T05:04:51.840Z,101420.53
2023-01-31T05:07:19.766Z,101427.38
2023-01-31T05:09:47.884Z,101426.63
2023-01-31T05:12:15.538Z,101424.91
2023-01-31T05:14:43.640Z,101423.16
2023-01-31T05:17:13.361Z,101413.81
2023-01-31T05:19:42.387Z,101418.13
2023-01-31T05:22:10.716Z,101422.38
2023-01-31T05:24:38.472Z,101413.84
2023-01-31T05:27:06.939Z,101423.97
2023-01-31T05:29:35.007Z,101419.66
2023-01-31T05:32:04.266Z,101426.50
2023-01-31T05:34:34.105Z,101422.16
2023-01-31T05:37:02.665Z,101404.22
2023-01-31T05:39:30.523Z,101409.41
2023-01-31T05:41:59.477Z,101408.59
2023-01-31T05:44:27.236Z,101407.69
2023-01-31T05:46:55.183Z,101408.63
2023-01-31T05:49:22.948Z,101405.28
2023-01-31T05:51:51.945Z,101401.94
2023-01-31T05:54:19.678Z,101407.97
2023-01-31T05:56:47.344Z,101414.94
2023-01-31T05:59:15.277Z,101409.84
2023-01-31T06:01:43.163Z,101407.38
2023-01-31T06:04:11.225Z,101409.22
2023-01-31T06:06:39.087Z,101415.41
2023-01-31T06:09:08.493Z,101421.41
2023-01-31T06:11:36.223Z,101420.66
2023-01-31T06:14:03.959Z,101414.75
2023-01-31T06:16:32.097Z,101410.47
2023-01-31T06:19:00.192Z,101419.06
2023-01-31T06:21:28.252Z,101415.75
2023-01-31T06:23:56.118Z,101413.13
2023-01-31T06:26:25.357Z,101407.16
2023-01-31T06:28:53.184Z,101404.56
2023-01-31T06:31:21.367Z,101409.72
2023-01-31T06:33:49.469Z,101407.13
2023-01-31T06:36:19.458Z,101406.22
2023-01-31T06:38:50.511Z,101408.78
2023-01-31T06:41:18.668Z,101415.72
2023-01-31T06:43:47.814Z,101414.03
2023-01-31T06:46:17.910Z,101415.69
2023-01-31T06:48:48.305Z,101409.56
2023-01-31T06:51:16.138Z,101412.97
2023-01-31T06:53:44.374Z,101421.47
2023-01-31T06:56:13.664Z,101424.84
2023-01-31T06:58:41.912Z,101432.41
2023-01-31T07:01:17.469Z,101430.66
2023-01-31T07:03:46.708Z,101437.44
2023-01-31T07:06:14.411Z,101441.69
2023-01-31T07:08:43.153Z,101450.09
2023-01-31T07:11:10.860Z,101450.03
2023-01-31T07:13:40.044Z,101450.06
2023-01-31T07:16:08.994Z,101455.16
2023-01-31T07:18:40.848Z,101462.81
2023-01-31T07:21:12.321Z,101471.41
2023-01-31T07:23:40.351Z,101472.25
2023-01-31T07:26:09.244Z,101471.50
2023-01-31T07:28:41.321Z,101476.63
2023-01-31T07:31:15.815Z,101471.53
2023-01-31T07:33:45.353Z,101476.63
2023-01-31T07:36:15.588Z,101470.66
2023-01-31T07:38:43.599Z,101479.34
2023-01-31T07:41:13.547Z,101481.09
2023-01-31T07:43:42.249Z,101482.91
2023-01-31T07:46:11.828Z,101474.59
2023-01-31T07:48:40.574Z,101465.31
2023-01-31T07:51:13.031Z,101457.00
2023-01-31T07:53:42.491Z,101466.38
2023-01-31T07:56:13.383Z,101461.25
2023-01-31T07:58:41.883Z,101474.16
2023-01-31T08:01:31.919Z,101482.06
2023-01-31T08:04:10.687Z,101481.03
2023-01-31T08:06:53.523Z,101481.00
2023-01-31T08:09:24.896Z,101493.94
2023-01-31T08:11:53.577Z,101487.25
2023-01-31T08:14:25.218Z,101488.09
2023-01-31T08:16:53.879Z,101478.06
2023-01-31T08:19:22.331Z,101475.44
2023-01-31T08:21:51.903Z,101481.34
2023-01-31T08:24:19.626Z,101471.13
2023-01-31T08:26:47.431Z,101474.66
2023-01-31T08:29:15.333Z,101474.59
2023-01-31T08:31:43.910Z,101477.22
2023-01-31T08:34:12.709Z,101478.88
2023-01-31T08:36:41.210Z,101475.47
2023-01-31T08:39:11.366Z,101472.91
2023-01-31T08:41:40.702Z,101478.81
2023-01-31T08:44:08.781Z,101473.72
2023-01-31T08:46:38.252Z,101469.47
2023-01-31T08:49:07.562Z,101461.81
2023-01-31T08:51:36.076Z,101459.22
2023-01-31T08:54:04.449Z,101464.38
2023-01-31T08:56:33.916Z,101468.69
2023-01-31T08:59:02.058Z,101475.56
2023-01-31T09:01:30.335Z,101484.13
2023-01-31T09:03:58.644Z,101489.25
2023-01-31T09:06:28.011Z,101483.25
2023-01-31T09:08:57.958Z,101479.84
2023-01-31T09:11:30.269Z,101485.00
2023-01-31T09:13:59.636Z,101482.59
2023-01-31T09:16:27.393Z,101473.19
2023-01-31T09:18:56.363Z,101463.81
2023-01-31T09:21:25.497Z,101468.13
2023-01-31T09:23:56.876Z,101460.44
2023-01-31T09:26:24.862Z,101446.75
2023-01-31T09:28:52.728Z,101445.94
2023-01-31T09:31:22.560Z,101444.22
2023-01-31T09:33:51.181Z,101431.44
2023-01-31T09:36:21.281Z,101429.75
2023-01-31T09:38:49.235Z,101437.41
2023-01-31T09:41:22.969Z,101440.81
2023-01-31T09:43:55.840Z,101421.97
2023-01-31T09:46:32.136Z,101438.28
2023-01-31T09:49:05.916Z,101440.84
2023-01-31T09:51:35.201Z,101428.00
2023-01-31T09:54:04.960Z,101427.19
2023-01-31T09:56:41.716Z,101428.03
2023-01-31T09:59:21.485Z,101434.91
2023-01-31T10:02:00.280Z,101452.91
2023-01-31T10:04:52.218Z,101447.75
2023-01-31T10:07:28.150Z,101447.72
2023-01-31T10:10:04.736Z,101446.91
2023-01-31T10:12:38.221Z,101439.22
2023-01-31T10:15:14.889Z,101421.19
2023-01-31T10:17:49.901Z,101424.66
2023-01-31T10:20:22.246Z,101416.94
2023-01-31T10:22:57.430Z,101434.06
2023-01-31T10:25:28.391Z,101449.50
2023-01-31T10:28:01.466Z,101445.19
2023-01-31T10:30:38.373Z,101413.47
2023-01-31T10:33:22.885Z,101436.66
2023-01-31T10:35:54.789Z,101442.69
2023-01-31T10:38:26.435Z,101426.38
2023-01-31T10:41:00.103Z,101424.66
2023-01-31T10:43:34.641Z,101427.19
2023-01-31T10:46:03.314Z,101430.63
2023-01-31T10:48:32.819Z,101417.78
2023-01-31T10:51:12.726Z,101416.94
2023-01-31T10:53:57.973Z,101429.78
2023-01-31T10:56:32.367Z,101428.09
2023-01-31T10:59:03.536Z,101423.81
2023-01-31T11:01:31.611Z,101411.78
2023-01-31T11:04:02.929Z,101417.78
2023-01-31T11:06:31.077Z,101414.34
2023-01-31T11:09:01.230Z,101397.19
2023-01-31T11:11:30.205Z,101378.28
2023-01-31T11:14:00.563Z,101361.94
2023-01-31T11:16:31.042Z,101346.47
2023-01-31T11:19:01.990Z,101325.88
2023-01-31T11:21:32.721Z,101339.59
2023-01-31T11:24:04.788Z,101336.16
2023-01-31T11:26:35.916Z,101333.59
2023-01-31T11:29:09.151Z,101332.72
2023-01-31T11:31:42.779Z,101336.16
2023-01-31T11:34:24.803Z,101336.13
2023-01-31T11:36:53.158Z,101320.72
2023-01-31T11:39:28.318Z,101322.44
2023-01-31T11:41:56.745Z,101305.25
2023-01-31T11:44:25.382Z,101288.94
2023-01-31T11:46:56.297Z,101293.22
2023-01-31T11:49:30.920Z,101280.31
2023-01-31T11:52:01.660Z,101281.22
2023-01-31T11:54:34.960Z,101301.84
2023-01-31T11:57:03.487Z,101298.41
2023-01-31T11:59:32.240Z,101283.81
2023-01-31T12:02:01.860Z,101279.50
2023-01-31T12:04:36.283Z,101273.47
2023-01-31T12:07:06.762Z,101270.03
2023-01-31T12:09:44.210Z,101258.03
2023-01-31T12:12:31.128Z,101264.03
2023-01-31T12:15:05.371Z,101255.41
2023-01-31T12:17:37.756Z,101253.69
2023-01-31T12:20:28.240Z,101237.28
2023-01-31T12:23:08.316Z,101231.25
2023-01-31T12:25:51.092Z,101225.16
2023-01-31T12:28:29.905Z,101233.81
2023-01-31T12:31:19.889Z,101240.72
2023-01-31T12:34:03.275Z,101244.19
2023-01-31T12:36:44.918Z,101229.53
2023-01-31T12:39:28.180Z,101226.97
2023-01-31T12:42:13.533Z,101200.22
2023-01-31T12:44:46.846Z,101194.94
2023-01-31T12:47:41.881Z,101189.84
2023-01-31T12:50:32.084Z,101207.06
2023-01-31T12:53:22.446Z,101201.91
2023-01-31T12:56:04.648Z,101193.47
2023-01-31T12:58:48.482Z,101185.72
2023-01-31T13:01:22.263Z,101164.94
2023-01-31T13:04:03.184Z,101148.53
2023-01-31T13:06:35.708Z,101162.28
2023-01-31T13:09:12.045Z,101166.66
2023-01-31T13:11:45.415Z,101159.75
2023-01-31T13:14:19.843Z,101151.88
2023-01-31T13:16:50.383Z,101133.59
2023-01-31T13:19:23.630Z,101152.53
2023-01-31T13:21:56.514Z,101149.09
2023-01-31T13:24:32.482Z,101131.69
2023-01-31T13:27:04.571Z,101132.59
2023-01-31T13:29:38.125Z,101143.84
2023-01-31T13:32:11.756Z,101146.41
2023-01-31T13:34:51.347Z,101146.50
2023-01-31T13:37:21.293Z,101155.22
2023-01-31T13:39:53.817Z,101163.03
2023-01-31T13:42:21.675Z,101141.56
2023-01-31T13:44:50.117Z,101133.88
2023-01-31T13:47:24.263Z,101137.34
2023-01-31T13:49:57.647Z,101139.88
2023-01-31T13:52:32.249Z,101144.25
2023-01-31T13:55:03.387Z,101122.66
2023-01-31T13:57:34.676Z,101130.31
2023-01-31T14:00:10.659Z,101139.00
2023-01-31T14:02:38.493Z,101132.25
2023-01-31T14:05:28.208Z,101127.06
2023-01-31T14:08:30.766Z,101113.97
2023-01-31T14:11:01.367Z,101106.09
2023-01-31T14:13:41.712Z,101114.66
2023-01-31T14:16:36.246Z,101111.25
2023-01-31T14:19:05.027Z,101127.66
2023-01-31T14:21:54.697Z,101125.91
2023-01-31T14:25:04.458Z,101133.69
2023-01-31T14:27:43.366Z,101126.72
2023-01-31T14:30:25.013Z,101134.63
2023-01-31T14:33:06.372Z,101134.47
2023-01-31T14:35:59.536Z,101138.13
2023-01-31T14:38:48.033Z,101146.63
2023-01-31T14:41:25.975Z,101146.69
2023-01-31T14:44:13.932Z,101155.22
2023-01-31T14:47:06.573Z,101159.59
2023-01-31T14:50:19.135Z,101155.28
2023-01-31T14:53:03.665Z,101156.91
2023-01-31T14:55:48.426Z,101143.19
2023-01-31T14:58:20.464Z,101145.00
2023-01-31T15:00:53.607Z,101132.03
2023-01-31T15:03:26.040Z,101130.44
2023-01-31T15:05:56.876Z,101129.53
2023-01-31T15:08:40.408Z,101125.25
2023-01-31T15:11:12.973Z,101127.03
2023-01-31T15:13:48.201Z,101120.91
2023-01-31T15:16:26.736Z,101130.34
2023-01-31T15:19:02.947Z,101120.91
2023-01-31T15:21:33.687Z,101128.69
2023-01-31T15:24:02.593Z,101113.22
2023-01-31T15:26:35.812Z,101115.81
2023-01-31T15:29:05.504Z,101124.44
2023-01-31T15:31:42.729Z,101114.00
2023-01-31T15:34:17.450Z,101115.81
2023-01-31T15:36:49.687Z,101121.81
2023-01-31T15:39:25.252Z,101134.75
2023-01-31T15:41:53.046Z,101148.59
2023-01-31T15:44:23.225Z,101133.94
2023-01-31T15:46:53.973Z,101141.66
2023-01-31T15:49:38.125Z,101135.59
2023-01-31T15:52:12.923Z,101145.09
2023-01-31T15:54:41.206Z,101143.44
2023-01-31T15:57:16.477Z,101138.25
2023-01-31T15:59:48.515Z,101151.16
2023-01-31T16:02:28.274Z,101154.59
2023-01-31T16:04:56.730Z,101152.09
2023-01-31T16:07:28.432Z,101145.19
2023-01-31T16:09:57.825Z,101147.72
2023-01-31T16:12:26.545Z,101138.25
2023-01-31T16:14:59.201Z,101130.34
2023-01-31T16:17:29.335Z,101130.34
2023-01-31T16:19:58.137Z,101123.50
2023-01-31T16:22:32.228Z,101120.78
2023-01-31T16:25:01.976Z,101125.88
2023-01-31T16:27:33.941Z,101127.66
2023-01-31T16:30:02.033Z,101127.63
2023-01-31T16:32:35.385Z,101119.81
2023-01-31T16:35:06.274Z,101128.59
2023-01-31T16:37:37.419Z,101129.38
2023-01-31T16:40:09.761Z,101132.91
2023-01-31T16:42:39.222Z,101132.09
2023-01-31T16:45:29.319Z,101134.66
2023-01-31T16:48:20.307Z,101127.84
2023-01-31T16:50:48.683Z,101120.91
2023-01-31T16:53:31.852Z,101120.03
2023-01-31T16:56:21.764Z,101124.41
2023-01-31T16:58:53.445Z,101124.19
2023-01-31T17:01:24.842Z,101122.38
2023-01-31T17:04:07.779Z,101119.81
2023-01-31T17:06:36.995Z,101127.44
2023-01-31T17:09:07.354Z,101123.78
2023-01-31T17:11:43.594Z,101125.69
2023-01-31T17:14:11.854Z,101115.31
2023-01-31T17:16:40.213Z,101118.69
2023-01-31T17:19:11.390Z,101114.44
2023-01-31T17:21:42.215Z,101109.31
2023-01-31T17:24:14.883Z,101107.63
2023-01-31T17:26:43.427Z,101118.13
2023-01-31T17:29:11.884Z,101118.00
2023-01-31T17:31:41.964Z,101118.19
2023-01-31T17:34:14.740Z,101119.03
2023-01-31T17:36:43.140Z,101116.53
2023-01-31T17:39:11.353Z,101114.84
2023-01-31T17:41:41.063Z,101107.19
2023-01-31T17:44:13.818Z,101113.25
2023-01-31T17:46:41.802Z,101114.09
2023-01-31T17:49:09.724Z,101106.25
2023-01-31T17:51:39.244Z,101120.13
2023-01-31T17:54:07.061Z,101125.31
2023-01-31T17:56:36.019Z,101120.09
2023-01-31T17:59:04.298Z,101123.63
2023-01-31T18:01:33.135Z,101121.94
2023-01-31T18:04:01.250Z,101121.00
2023-01-31T18:06:28.941Z,101114.06
2023-01-31T18:09:02.438Z,101113.25
2023-01-31T18:11:30.145Z,101114.13
2023-01-31T18:13:59.047Z,101116.69
2023-01-31T18:16:27.740Z,101114.94
2023-01-31T18:18:55.801Z,101114.00
2023-01-31T18:21:25.368Z,101113.19
2023-01-31T18:23:54.958Z,101106.91
2023-01-31T18:26:25.921Z,101109.44
2023-01-31T18:29:26.052Z,101106.72
2023-01-31T18:31:57.995Z,101121.44
2023-01-31T18:34:26.326Z,101132.81
2023-01-31T18:36:55.113Z,101139.75
2023-01-31T18:39:23.571Z,101126.06
2023-01-31T18:41:53.400Z,101130.44
2023-01-31T18:44:21.159Z,101126.94
2023-01-31T18:46:48.975Z,101118.34
2023-01-31T18:49:18.056Z,101114.88
2023-01-31T18:51:46.797Z,101115.63
2023-01-31T18:54:14.630Z,101111.41
2023-01-31T18:56:43.468Z,101108.66
2023-01-31T18:59:12.991Z,101108.63
2023-01-31T19:01:43.198Z,101104.97
2023-01-31T19:04:11.265Z,101120.66
2023-01-31T19:06:41.654Z,101118.94
2023-01-31T19:09:10.706Z,101119.84
2023-01-31T19:11:40.305Z,101125.75
2023-01-31T19:14:08.668Z,101131.06
2023-01-31T19:16:40.505Z,101129.38
2023-01-31T19:19:09.411Z,101136.31
2023-01-31T19:21:38.408Z,101124.31
2023-01-31T19:24:08.680Z,101122.63
2023-01-31T19:26:37.125Z,101119.13
2023-01-31T19:29:09.318Z,101109.56
2023-01-31T19:31:38.855Z,101111.28
2023-01-31T19:34:07.224Z,101109.59
2023-01-31T19:36:37.473Z,101117.41
2023-01-31T19:39:08.426Z,101117.34
2023-01-31T19:41:36.646Z,101122.53
2023-01-31T19:44:05.344Z,101125.91
2023-01-31T19:46:37.051Z,101114.59
2023-01-31T19:49:06.582Z,101107.72
2023-01-31T19:51:37.901Z,101107.81
2023-01-31T19:54:06.693Z,101103.50
2023-01-31T19:56:34.983Z,101101.69
2023-01-31T19:59:02.770Z,101110.97
2023-01-31T20:01:30.603Z,101115.50
2023-01-31T20:03:58.588Z,101118.91
2023-01-31T20:06:29.865Z,101124.81
2023-01-31T20:08:59.355Z,101123.25
2023-01-31T20:11:30.033Z,101118.69
2023-01-31T20:13:58.802Z,101104.06
2023-01-31T20:16:27.661Z,101103.16
2023-01-31T20:18:56.513Z,101104.91
2023-01-31T20:21:24.759Z,101112.84
2023-01-31T20:23:54.017Z,101102.50
2023-01-31T20:26:24.190Z,101097.41
2023-01-31T20:28:52.164Z,101098.03
2023-01-31T20:31:20.255Z,101099.00
2023-01-31T20:33:47.974Z,101096.41
2023-01-31T20:36:16.185Z,101092.97
2023-01-31T20:38:44.098Z,101091.25
2023-01-31T20:41:15.051Z,101098.22
2023-01-31T20:43:43.803Z,101086.91
2023-01-31T20:46:14.234Z,101080.84
2023-01-31T20:48:42.706Z,101080.91
2023-01-31T20:51:10.445Z,101082.56
2023-01-31T20:53:39.386Z,101084.50
2023-01-31T20:56:10.273Z,101082.84
2023-01-31T20:58:40.738Z,101091.59
2023-01-31T21:01:10.423Z,101102.94
2023-01-31T21:03:38.720Z,101102.22
2023-01-31T21:06:08.422Z,101104.88
2023-01-31T21:08:36.548Z,101110.03
2023-01-31T21:11:07.543Z,101125.44
2023-01-31T21:13:36.156Z,101129.63
2023-01-31T21:16:07.955Z,101130.47
2023-01-31T21:18:38.231Z,101132.19
2023-01-31T21:21:07.369Z,101136.50
2023-01-31T21:23:36.226Z,101131.28
2023-01-31T21:26:04.691Z,101125.25
2023-01-31T21:28:32.496Z,101123.59
2023-01-31T21:31:02.190Z,101120.97
2023-01-31T21:33:32.022Z,101123.59
2023-01-31T21:36:01.036Z,101130.44
2023-01-31T21:38:28.827Z,101138.88
2023-01-31T21:41:10.429Z,101145.91
2023-01-31T21:43:41.185Z,101143.19
2023-01-31T21:46:09.873Z,101134.63
2023-01-31T21:48:39.852Z,101129.50
2023-01-31T21:51:09.662Z,101132.09
2023-01-31T21:53:38.200Z,101118.34
2023-01-31T21:56:08.283Z,101109.78
2023-01-31T21:58:37.412Z,101097.78
2023-01-31T22:01:06.567Z,101094.34
2023-01-31T22:03:35.435Z,101080.44
2023-01-31T22:06:06.498Z,101073.44
2023-01-31T22:08:34.633Z,101084.63
2023-01-31T22:11:03.828Z,101081.25
2023-01-31T22:13:32.341Z,101084.69
2023-01-31T22:16:01.354Z,101082.13
2023-01-31T22:18:29.764Z,101074.44
2023-01-31T22:21:04.077Z,101076.19
2023-01-31T22:23:32.445Z,101081.31
2023-01-31T22:26:03.650Z,101077.84
2023-01-31T22:28:31.425Z,101082.97
2023-01-31T22:31:02.116Z,101079.50
2023-01-31T22:33:30.285Z,101070.03
2023-01-31T22:35:58.229Z,101067.38
2023-01-31T22:38:28.138Z,101056.09
2023-01-31T22:40:58.448Z,101052.72
2023-01-31T22:43:26.724Z,101044.06
2023-01-31T22:45:56.533Z,101039.84
2023-01-31T22:48:25.765Z,101052.88
2023-01-31T22:50:58.147Z,101043.47
2023-01-31T22:53:29.416Z,101035.78
2023-01-31T22:56:03.010Z,101026.22
2023-01-31T22:58:30.969Z,101037.41
2023-01-31T23:00:58.816Z,101026.94
2023-01-31T23:03:26.951Z,101032.16
2023-01-31T23:05:54.932Z,101039.94
2023-01-31T23:08:22.758Z,101038.13
2023-01-31T23:10:52.682Z,101039.03
2023-01-31T23:13:20.426Z,101043.25
2023-01-31T23:15:48.874Z,101034.66
2023-01-31T23:18:16.189Z,101032.63
2023-01-31T23:20:44.438Z,101033.66
2023-01-31T23:23:12.245Z,101032.75
2023-01-31T23:25:40.763Z,101029.28
2023-01-31T23:28:09.943Z,101031.16
2023-01-31T23:30:38.135Z,101033.66
2023-01-31T23:33:06.030Z,101029.34
2023-01-31T23:35:33.976Z,101027.56
2023-01-31T23:38:01.747Z,101028.44
2023-01-31T23:40:29.448Z,101027.53
2023-01-31T23:42:57.284Z,101017.28
2023-01-31T23:45:26.500Z,101019.94
2023-01-31T23:47:54.923Z,101010.47
2023-01-31T23:50:22.936Z,101002.53
2023-01-31T23:52:50.815Z,101009.44
2023-01-31T23:55:19.522Z,101000.94
2023-01-31T23:57:47.561Z,101007.81
